Time;durP1;ratioP1;P1;durP2;ratioP2;P2;SDS_P1;SDS_P2;PMS_P1;PMS_P2;Temp;Humidity;BMP_temperature;BMP_pressure;BME280_temperature;BME280_humidity;BME280_pressure;Samples;Min_cycle;Max_cycle;Signal;HPM_P1;HPM_P2
2023/10/13 00:03:36;;;;;;;2.22;1.60;;;;;;;24.95;46.22;101014.41;21172562;27;20048;-63
2023/10/13 00:13:42;;;;;;;2.75;1.60;;;;;;;24.94;46.35;101040.75;21171438;28;20058;-64
2023/10/13 00:23:52;;;;;;;1.67;1.55;;;;;;;24.91;46.36;101038.56;21170622;28;20394;-63
2023/10/13 00:33:55;;;;;;;1.75;1.60;;;;;;;24.93;46.29;101048.34;21169630;27;20050;-64
2023/10/13 00:44:09;;;;;;;1.77;1.55;;;;;;;24.92;46.36;101054.22;21168835;28;20057;-66
2023/10/13 00:54:18;;;;;;;2.08;1.60;;;;;;;24.65;46.21;101033.41;21168485;28;20046;-65
2023/10/13 01:04:28;;;;;;;2.03;1.55;;;;;;;24.93;46.19;101086.69;21166113;28;20050;-65
2023/10/13 01:14:30;;;;;;;1.58;1.48;;;;;;;24.87;46.29;101085.09;21165518;28;20046;-64
2023/10/13 01:24:34;;;;;;;1.95;1.60;;;;;;;24.87;46.19;101099.09;21165184;28;20039;-65
2023/10/13 01:34:37;;;;;;;1.85;1.60;;;;;;;24.92;46.23;101125.03;21163750;28;20036;-61
2023/10/13 01:44:38;;;;;;;2.78;2.05;;;;;;;24.93;46.68;101125.88;21163219;27;20035;-63
2023/10/13 01:54:44;;;;;;;2.17;1.83;;;;;;;24.77;46.44;101108.47;21162965;28;20422;-64
2023/10/13 02:04:49;;;;;;;3.00;1.77;;;;;;;24.93;46.36;101129.50;21162454;28;20118;-64
2023/10/13 02:14:50;;;;;;;1.92;1.60;;;;;;;24.82;46.33;101109.22;21162319;28;20039;-63
2023/10/13 02:24:52;;;;;;;2.17;1.73;;;;;;;24.88;46.29;101097.94;21162425;28;20479;-64
2023/10/13 02:34:58;;;;;;;2.63;1.77;;;;;;;24.91;46.25;101114.13;21159993;28;20069;-64
2023/10/13 02:44:59;;;;;;;1.75;1.52;;;;;;;24.94;46.15;101121.94;21159899;28;20070;-63
2023/10/13 02:55:00;;;;;;;3.80;1.95;;;;;;;24.93;46.15;101115.50;21159469;28;20040;-63
2023/10/13 03:05:13;;;;;;;2.45;1.70;;;;;;;24.85;46.20;101089.03;21159411;28;20066;-63
2023/10/13 03:15:21;;;;;;;1.98;1.58;;;;;;;24.91;46.40;101097.34;21159283;28;20075;-64
2023/10/13 03:35:37;;;;;;;2.37;1.87;;;;;;;24.94;46.35;101102.34;21171825;28;20092;-63
2023/10/13 03:45:43;;;;;;;3.60;2.00;;;;;;;24.94;46.21;101096.75;21173706;28;20069;-61
2023/10/13 03:55:48;;;;;;;2.15;1.80;;;;;;;24.93;46.34;101121.13;21173186;28;20475;-64
2023/10/13 04:06:16;;;;;;;1.80;1.55;;;;;;;24.84;46.28;101092.97;21172489;28;20394;-63
2023/10/13 04:26:36;;;;;;;2.35;1.77;;;;;;;24.91;46.18;101119.75;21171723;28;20459;-62
2023/10/13 04:36:45;;;;;;;2.00;1.80;;;;;;;24.91;46.40;101120.56;21169716;28;20375;-63
2023/10/13 04:56:59;;;;;;;2.05;1.80;;;;;;;24.93;46.19;101137.09;21168788;28;20104;-62
2023/10/13 06:30:12;;;;;;;2.20;1.80;;;;;;;24.91;46.24;101161.72;21144180;28;20043;-62
2023/10/13 06:50:28;;;;;;;2.47;1.92;;;;;;;24.91;46.22;101167.34;21160782;28;20097;-63
2023/10/13 07:00:34;;;;;;;2.05;1.85;;;;;;;24.84;46.30;101156.53;21159180;28;20147;-62
2023/10/13 07:10:48;;;;;;;2.05;1.60;;;;;;;24.91;46.07;101186.91;21175556;28;20460;-63
2023/10/13 07:20:49;;;;;;;2.17;1.90;;;;;;;24.89;46.09;101190.03;21176357;28;20051;-63
2023/10/13 07:41:06;;;;;;;3.55;2.15;;;;;;;24.90;45.90;101202.06;21174682;28;20405;-63
2023/10/13 07:51:16;;;;;;;2.05;1.85;;;;;;;24.88;46.05;101205.19;21172950;28;20475;-63
2023/10/13 08:01:18;;;;;;;2.05;1.80;;;;;;;24.87;45.90;101223.06;21172098;28;20044;-63
2023/10/13 08:21:24;;;;;;;2.15;1.88;;;;;;;24.85;45.98;101256.97;21171373;28;20054;-64
2023/10/13 08:31:29;;;;;;;1.98;1.77;;;;;;;24.84;46.03;101274.91;21171048;28;20043;-63
2023/10/13 08:41:31;;;;;;;2.53;1.60;;;;;;;24.85;46.03;101256.97;21167672;28;20056;-62
2023/10/13 08:51:48;;;;;;;2.10;1.88;;;;;;;24.83;45.88;101256.47;21168098;28;20467;-63
2023/10/13 09:02:59;;;;;;;2.60;2.10;;;;;;;24.85;45.97;101272.94;21166885;28;20105;-63
2023/10/13 09:12:13;;;;;;;2.00;1.80;;;;;;;24.84;45.97;101293.69;21160412;28;20032;-64
2023/10/13 09:22:38;;;;;;;1.88;1.58;;;;;;;24.81;45.88;101306.28;21166621;28;20084;-63
2023/10/13 09:32:51;;;;;;;2.00;1.73;;;;;;;24.83;45.89;101326.44;21168720;28;20032;-64
2023/10/13 09:42:55;;;;;;;1.52;1.40;;;;;;;24.82;45.71;101335.13;21164226;28;20031;-62
2023/10/13 09:53:00;;;;;;;1.90;1.52;;;;;;;24.68;45.82;101323.78;21163074;28;20026;-63
2023/10/13 10:13:41;;;;;;;2.35;1.80;;;;;;;24.77;45.68;101366.78;21152261;28;20040;-64
2023/10/13 10:23:53;;;;;;;2.55;1.85;;;;;;;24.69;45.83;101347.84;21163335;28;20039;-65
2023/10/13 10:33:57;;;;;;;2.13;1.80;;;;;;;24.78;45.70;101376.84;21162238;28;20039;-62
2023/10/13 10:44:02;;;;;;;2.05;1.73;;;;;;;24.79;45.73;101369.31;21160060;28;20015;-63
2023/10/13 10:54:21;;;;;;;2.13;1.60;;;;;;;24.76;45.67;101392.28;21159239;28;20097;-63
2023/10/13 11:14:28;;;;;;;2.03;1.83;;;;;;;24.61;45.54;101384.91;21159994;28;20031;-63
2023/10/13 11:24:42;;;;;;;2.17;1.65;;;;;;;24.73;45.52;101430.09;21158734;28;20023;-64
2023/10/13 11:34:43;;;;;;;3.10;1.70;;;;;;;24.71;45.62;101440.75;21158232;28;20471;-63
2023/10/13 11:44:44;;;;;;;1.83;1.70;;;;;;;24.73;45.47;101444.06;21158708;28;20368;-63
2023/10/13 11:54:46;;;;;;;1.83;1.67;;;;;;;24.71;45.53;101457.53;21167530;28;20048;-63
2023/10/13 12:15:09;;;;;;;1.80;1.50;;;;;;;24.49;45.43;101449.63;21172055;28;20047;-63
2023/10/13 12:25:25;;;;;;;2.45;1.42;;;;;;;24.72;45.46;101491.97;21170984;28;20032;-63
2023/10/13 12:35:44;;;;;;;1.85;1.50;;;;;;;24.70;45.51;101497.88;21170489;28;20042;-63
2023/10/13 12:56:11;;;;;;;1.85;1.35;;;;;;;24.66;45.37;101521.97;21170089;28;20035;-63
2023/10/13 13:06:26;;;;;;;3.50;1.80;;;;;;;24.68;45.38;101558.03;21167057;28;20113;-63
2023/10/13 13:16:30;;;;;;;1.60;1.50;;;;;;;24.71;45.40;101563.91;21166787;28;20031;-63
2023/10/13 13:26:31;;;;;;;1.35;1.25;;;;;;;24.71;45.26;101580.69;21166436;28;20042;-63
2023/10/13 13:36:36;;;;;;;2.03;1.30;;;;;;;24.71;45.25;101582.66;21164939;28;20354;-63
2023/10/13 13:46:41;;;;;;;1.45;1.10;;;;;;;24.64;45.15;101566.19;21164090;28;20039;-64
2023/10/13 13:56:42;;;;;;;1.50;1.40;;;;;;;24.72;45.40;101581.53;21163293;28;20047;-63
2023/10/13 14:06:47;;;;;;;1.63;1.40;;;;;;;24.72;45.28;101587.13;21161977;28;20043;-63
2023/10/13 14:16:48;;;;;;;1.50;1.02;;;;;;;24.74;45.11;101574.53;21161797;28;20040;-62
2023/10/13 14:26:51;;;;;;;1.40;1.30;;;;;;;24.74;44.95;101540.94;21161232;28;20032;-63
2023/10/13 14:36:54;;;;;;;1.52;1.23;;;;;;;24.74;45.01;101529.75;21160729;28;20444;-63
2023/10/13 14:46:55;;;;;;;1.02;0.93;;;;;;;24.72;44.82;101537.56;21160838;28;20110;-63
2023/10/13 14:56:57;;;;;;;1.10;1.00;;;;;;;24.76;44.91;101561.06;21158579;28;20047;-63
2023/10/13 15:07:04;;;;;;;1.00;0.90;;;;;;;24.79;44.74;101556.84;21159315;28;20046;-62
2023/10/13 15:17:06;;;;;;;0.87;0.80;;;;;;;24.78;44.58;101542.00;21156584;28;20369;-63
2023/10/13 15:27:08;;;;;;;1.20;1.08;;;;;;;24.64;44.63;101503.78;21166097;28;20121;-63
2023/10/13 15:37:12;;;;;;;2.00;0.88;;;;;;;24.80;44.55;101528.56;21174833;28;20027;-64
2023/10/13 15:47:13;;;;;;;2.85;1.00;;;;;;;24.82;44.58;101520.69;21174297;28;20039;-63
2023/10/13 15:57:16;;;;;;;3.03;0.80;;;;;;;24.80;44.70;101522.97;21172839;27;20069;-63
2023/10/13 16:07:20;;;;;;;9.10;1.00;;;;;;;24.86;44.24;101532.13;21170455;28;20036;-63
2023/10/13 16:17:23;;;;;;;0.77;0.70;;;;;;;24.87;44.38;101527.38;21171166;28;20108;-63
2023/10/13 16:27:24;;;;;;;0.88;0.75;;;;;;;24.91;44.19;101517.25;21170989;28;20039;-63
2023/10/13 16:37:26;;;;;;;0.80;0.60;;;;;;;24.92;44.38;101496.53;21169489;28;20549;-65
2023/10/13 16:47:28;;;;;;;1.63;0.80;;;;;;;24.94;44.43;101477.47;21167554;28;20065;-63
2023/10/13 16:57:30;;;;;;;0.60;0.60;;;;;;;24.79;44.25;101430.91;21168724;28;20101;-64
2023/10/13 17:07:31;;;;;;;0.63;0.60;;;;;;;24.97;44.25;101432.94;21167057;27;20452;-63
2023/10/13 17:17:32;;;;;;;0.65;0.65;;;;;;;24.99;44.14;101433.47;21166611;28;20120;-63
2023/10/13 17:27:38;;;;;;;0.90;0.75;;;;;;;24.93;44.27;101419.81;21166187;28;20035;-63
2023/10/13 17:37:43;;;;;;;1.17;0.88;;;;;;;24.80;44.29;101383.00;21165094;28;20040;-63
2023/10/13 17:47:47;;;;;;;0.70;0.70;;;;;;;25.04;44.26;101394.19;21163506;28;20387;-63
2023/10/13 17:57:48;;;;;;;1.10;0.90;;;;;;;25.06;44.40;101386.34;21163338;28;20035;-62
2023/10/13 18:07:51;;;;;;;0.70;0.63;;;;;;;25.08;44.22;101372.06;21162036;28;20040;-62
2023/10/13 18:17:53;;;;;;;1.00;0.80;;;;;;;25.08;44.25;101384.09;21162610;28;20056;-63
2023/10/13 18:27:54;;;;;;;0.93;0.60;;;;;;;25.11;44.27;101371.47;21161634;27;20043;-64
2023/10/13 18:38:04;;;;;;;0.95;0.80;;;;;;;25.12;44.28;101384.34;21160730;28;20559;-62
2023/10/13 18:48:06;;;;;;;0.95;0.70;;;;;;;25.14;44.10;101376.47;21159778;28;20043;-63
2023/10/13 18:58:08;;;;;;;0.70;0.70;;;;;;;25.17;44.21;101387.06;21161100;28;20047;-62
2023/10/13 19:08:09;;;;;;;0.60;0.60;;;;;;;25.18;44.17;101382.31;21177475;28;20040;-62
2023/10/13 19:18:11;;;;;;;1.02;0.70;;;;;;;25.18;44.10;101377.53;21175580;28;20044;-63
2023/10/13 19:28:13;;;;;;;0.85;0.60;;;;;;;25.18;44.15;101355.13;21174475;28;20047;-63
2023/10/13 19:38:15;;;;;;;1.13;0.68;;;;;;;25.20;44.17;101327.69;21174387;28;20471;-62
2023/10/13 19:48:16;;;;;;;0.77;0.55;;;;;;;25.21;44.16;101326.53;21173508;28;20043;-62
2023/10/13 19:58:18;;;;;;;0.60;0.50;;;;;;;25.20;44.33;101308.06;21172460;28;20044;-63
2023/10/13 20:08:19;;;;;;;0.45;0.45;;;;;;;25.19;44.36;101300.78;21172268;28;20474;-62
2023/10/13 20:18:20;;;;;;;0.50;0.50;;;;;;;25.22;43.84;101288.97;21170085;28;20471;-64
2023/10/13 20:28:22;;;;;;;0.60;0.60;;;;;;;25.23;44.17;101284.22;21170589;28;20089;-62
2023/10/13 20:38:28;;;;;;;0.50;0.50;;;;;;;25.15;44.29;101263.31;21169772;28;20044;-62
2023/10/13 20:48:32;;;;;;;0.40;0.40;;;;;;;25.18;44.17;101273.09;21167097;28;20031;-63
2023/10/13 20:58:37;;;;;;;0.55;0.50;;;;;;;25.18;44.10;101282.31;21169576;28;20474;-64
2023/10/13 21:08:46;;;;;;;0.52;0.52;;;;;;;25.06;44.31;101265.09;21166270;28;20101;-64
2023/10/13 21:18:50;;;;;;;1.33;0.70;;;;;;;25.17;44.04;101277.03;21167190;28;20453;-62
2023/10/13 21:28:55;;;;;;;0.55;0.43;;;;;;;25.18;44.31;101273.91;21165321;28;20126;-63
2023/10/13 21:38:57;;;;;;;0.45;0.45;;;;;;;25.16;43.98;101295.81;21164688;28;20387;-63
2023/10/13 21:49:04;;;;;;;0.73;0.50;;;;;;;25.16;44.39;101295.81;21164278;28;20023;-63
2023/10/13 21:59:10;;;;;;;0.87;0.40;;;;;;;25.13;44.29;101302.00;21163328;28;20036;-62
2023/10/13 22:09:11;;;;;;;0.50;0.50;;;;;;;25.14;44.21;101320.47;21162337;28;20035;-63
2023/10/13 22:19:13;;;;;;;0.70;0.57;;;;;;;25.13;44.42;101335.59;21161866;28;20043;-63
2023/10/13 22:29:14;;;;;;;0.50;0.50;;;;;;;25.12;44.36;101345.16;21160771;28;20085;-64
2023/10/13 22:39:17;;;;;;;1.98;0.50;;;;;;;25.11;44.56;101343.47;21160615;28;20406;-64
2023/10/13 22:49:24;;;;;;;1.17;0.57;;;;;;;25.08;44.47;101336.50;21159216;28;20112;-63
2023/10/13 22:59:27;;;;;;;0.43;0.40;;;;;;;25.05;44.54;101333.44;21158759;28;20065;-63
2023/10/13 23:09:29;;;;;;;0.80;0.45;;;;;;;25.07;44.39;101346.03;21160212;28;20544;-62
2023/10/13 23:19:35;;;;;;;0.40;0.40;;;;;;;25.08;44.60;101360.88;21158968;28;20052;-63
2023/10/13 23:29:36;;;;;;;0.60;0.45;;;;;;;25.06;44.41;101374.28;21158572;28;20502;-63
2023/10/13 23:39:37;;;;;;;0.68;0.50;;;;;;;25.03;44.46;101374.91;21158578;28;20104;-62
2023/10/13 23:49:39;;;;;;;0.40;0.40;;;;;;;25.05;44.47;101376.25;21168042;28;20032;-63
2023/10/13 23:59:40;;;;;;;0.85;0.45;;;;;;;25.05;44.51;101375.44;21173443;27;20048;-63
